EDT,Max TemperatureF,Mean TemperatureF,Min TemperatureF,Max Dew PointF,MeanDew PointF,Min DewpointF,Max Humidity, Mean Humidity, Min Humidity, Max Sea Level PressureIn, Mean Sea Level PressureIn, Min Sea Level PressureIn, Max VisibilityMiles, Mean VisibilityMiles, Min VisibilityMiles, Max Wind SpeedMPH, Mean Wind SpeedMPH, Max Gust SpeedMPH,PrecipitationIn, CloudCover, Events, WindDirDegrees
2012-3-1,43,39,34,32,31,30,96,79,62,29.89,29.70,29.53,10,9,4,18,8,23,0.01,8,Snow,255
2012-3-2,48,41,34,44,35,30,89,77,65,29.88,29.51,29.07,10,8,2,37,12,52,0.33,7,Rain,126
2012-3-3,39,33,27,30,24,21,82,71,59,29.73,29.53,29.19,10,9,3,39,20,53,T,8,Snow,262
2012-3-4,33,28,23,21,19,16,81,70,58,29.94,29.81,29.71,10,8,2,16,8,20,0.01,7,Snow,322
2012-3-5,30,24,18,18,14,8,84,69,53,30.40,30.18,29.91,10,8,3,17,9,21,T,6,Snow,335
2012-3-6,56,42,27,36,26,17,69,55,41,30.39,30.19,30.00,10,10,10,23,14,32,0.00,3,,182
2012-3-7,67,58,49,43,36,27,52,44,36,30.08,29.99,29.84,10,10,10,28,17,44,0.00,3,,210
2012-3-8,63,47,30,52,38,22,86,69,51,30.12,29.89,29.73,10,10,6,26,15,39,0.12,6,Rain-Snow,262
2012-3-9,36,29,22,25,16,6,72,57,42,30.55,30.32,30.08,10,10,10,28,15,37,T,5,,300
2012-3-10,49,33,17,25,17,10,80,57,34,30.57,30.40,30.22,10,10,10,23,10,35,0.00,0,,196
2012-3-11,67,54,41,31,27,24,49,36,22,30.31,30.24,30.18,10,10,10,20,10,25,0.00,0,,219
2012-3-12,63,54,45,55,48,31,93,69,44,30.19,29.93,29.74,10,8,2,24,11,32,0.74,6,Rain,190
2012-3-13,61,53,44,50,39,28,89,61,33,30.12,29.98,29.85,10,10,9,26,12,33,0.00,1,,253
2012-3-14,76,55,33,49,37,27,89,60,30,30.15,30.07,29.99,10,10,10,17,7,23,0.00,0,,185
2012-3-15,77,68,58,62,57,51,87,73,58,30.01,29.98,29.91,10,10,9,17,6,28,0.09,2,Rain-Thunderstorm,198
2012-3-16,75,64,53,59,56,52,100,79,57,30.12,30.07,29.98,10,4,0,12,5,14,0.00,4,Fog,200
2012-3-17,79,68,56,57,53,50,93,65,37,30.17,30.12,30.08,10,8,3,16,8,22,0.00,0,,181
2012-3-18,75,64,52,58,54,50,89,71,53,30.11,30.07,30.03,10,9,4,13,6,16,0.00,0,,200
2012-3-19,80,65,49,58,54,48,96,72,48,30.11,30.07,30.03,10,7,0,17,8,21,0.00,1,Fog,160
2012-3-20,84,71,57,57,55,53,86,62,37,30.14,30.10,30.06,10,10,7,14,7,17,0.00,0,,178
2012-3-21,86,70,54,57,54,50,86,59,32,30.18,30.14,30.07,10,10,9,13,6,17,0.00,0,,169
2012-3-22,84,69,54,60,55,51,86,62,37,30.16,30.12,30.06,10,10,5,25,5,32,0.21,2,Rain-Thunderstorm,87
2012-3-23,73,64,55,58,55,52,93,75,57,30.09,30.01,29.88,10,6,2,13,4,16,0.03,2,Rain,39
2012-3-24,61,58,55,57,51,46,86,77,67,29.90,29.86,29.83,10,6,1,13,6,16,0.01,8,Rain,69
2012-3-25,72,58,43,51,44,26,93,63,33,30.11,29.94,29.88,10,6,1,21,9,28,0.01,5,Rain,319
2012-3-26,45,37,28,27,20,10,64,47,30,30.44,30.36,30.14,10,10,10,23,13,29,0.00,2,,32
2012-3-27,54,40,25,31,23,16,74,55,35,30.43,30.19,29.81,10,10,10,24,12,30,0.00,1,,157
2012-3-28,63,51,39,48,38,28,67,55,43,30.00,29.78,29.66,10,10,10,31,18,38,0.00,4,,279
2012-3-29,42,37,31,29,28,25,70,65,59,30.20,30.12,30.01,10,10,10,14,9,59,0.00,7,,15
2012-3-30,38,33,27,34,30,23,92,81,70,30.14,29.95,29.83,10,6,1,21,9,28,0.47,6,Rain-Thunderstorm,82
2012-3-31,45,40,34,32,30,29,89,74,58,30.04,29.99,29.94,10,10,8,14,5,18,0.00,7,,39